Time;durP1;ratioP1;P1;durP2;ratioP2;P2;SDS_P1;SDS_P2;PMS_P1;PMS_P2;Temp;Humidity;BMP_temperature;BMP_pressure;BME280_temperature;BME280_humidity;BME280_pressure;Samples;Min_cycle;Max_cycle;Signal;HPM_P1;HPM_P2
2022/10/16 00:00:38;;;;;;;;;;;20.30;71.00;;;;;;5060790;28;1969;-68
2022/10/16 00:03:04;;;;;;;;;;;20.30;71.00;;;;;;5057478;28;1014;-68
2022/10/16 00:05:29;;;;;;;;;;;20.30;71.00;;;;;;5063113;28;1344;-68
2022/10/16 00:07:54;;;;;;;;;;;20.30;71.00;;;;;;5060916;28;1274;-67
2022/10/16 00:10:20;;;;;;;;;;;20.30;71.00;;;;;;5062517;28;826;-67
2022/10/16 00:12:45;;;;;;;;;;;20.30;71.30;;;;;;5061195;28;898;-69
2022/10/16 00:15:11;;;;;;;;;;;20.30;71.10;;;;;;5059127;28;1362;-67
2022/10/16 00:17:36;;;;;;;;;;;20.30;71.10;;;;;;5059902;28;1420;-67
2022/10/16 00:20:02;;;;;;;;;;;20.30;71.10;;;;;;5068787;28;1308;-68
2022/10/16 00:22:27;;;;;;;;;;;20.30;71.10;;;;;;5065984;28;1956;-68
2022/10/16 00:24:53;;;;;;;;;;;20.30;71.10;;;;;;5058142;28;1284;-67
2022/10/16 00:27:18;;;;;;;;;;;20.30;71.10;;;;;;5059864;28;1005;-67
2022/10/16 00:29:44;;;;;;;;;;;20.30;71.10;;;;;;5062198;28;929;-68
2022/10/16 00:32:09;;;;;;;;;;;20.30;71.10;;;;;;5057456;28;1064;-67
2022/10/16 00:34:35;;;;;;;;;;;20.30;71.10;;;;;;5057544;28;1284;-68
2022/10/16 00:37:00;;;;;;;;;;;20.30;71.10;;;;;;5056760;28;1470;-68
2022/10/16 00:39:26;;;;;;;;;;;20.30;71.10;;;;;;5057180;28;857;-67
2022/10/16 00:41:51;;;;;;;;;;;20.30;71.10;;;;;;5061338;28;1901;-67
2022/10/16 00:44:35;;;;;;;;;;;20.30;71.10;;;;;;5059026;28;1294;-68
2022/10/16 00:47:00;;;;;;;;;;;20.30;71.10;;;;;;5059123;28;959;-69
2022/10/16 00:49:26;;;;;;;;;;;20.30;71.90;;;;;;5063952;28;919;-67
2022/10/16 00:51:52;;;;;;;;;;;20.30;71.20;;;;;;5060223;28;1842;-68
2022/10/16 00:54:21;;;;;;;;;;;20.30;71.10;;;;;;5056259;28;1362;-67
2022/10/16 00:56:46;;;;;;;;;;;20.30;71.10;;;;;;5055672;28;1021;-66
2022/10/16 00:59:16;;;;;;;;;;;20.30;71.20;;;;;;5060979;28;853;-67
2022/10/16 01:01:42;;;;;;;;;;;20.30;71.10;;;;;;5057148;28;1992;-67
2022/10/16 01:04:07;;;;;;;;;;;20.30;71.10;;;;;;5061011;28;804;-67
2022/10/16 01:06:36;;;;;;;;;;;20.30;71.20;;;;;;5064228;28;2024;-67
2022/10/16 01:09:01;;;;;;;;;;;20.30;71.20;;;;;;5059460;28;1365;-67
2022/10/16 01:11:29;;;;;;;;;;;20.20;71.20;;;;;;5060336;28;1687;-66
2022/10/16 01:13:55;;;;;;;;;;;20.30;71.20;;;;;;5059713;28;1391;-67
2022/10/16 01:16:32;;;;;;;;;;;20.30;71.20;;;;;;5061587;28;1294;-69
2022/10/16 01:19:00;;;;;;;;;;;20.30;71.20;;;;;;5063056;28;1754;-66
2022/10/16 01:21:27;;;;;;;;;;;20.20;71.20;;;;;;5065828;28;1903;-65
2022/10/16 01:23:53;;;;;;;;;;;20.20;71.20;;;;;;5062109;28;1339;-68
2022/10/16 01:26:37;;;;;;;;;;;20.30;71.20;;;;;;5068118;28;1446;-67
2022/10/16 01:29:20;;;;;;;;;;;20.30;71.20;;;;;;5061090;28;1356;-67
2022/10/16 01:31:47;;;;;;;;;;;20.20;71.20;;;;;;5068316;28;1014;-67
2022/10/16 01:34:14;;;;;;;;;;;20.20;71.20;;;;;;5060532;28;1484;-68
2022/10/16 01:36:43;;;;;;;;;;;20.20;71.20;;;;;;5063950;28;1438;-67
2022/10/16 01:39:09;;;;;;;;;;;20.30;71.30;;;;;;5065545;28;1442;-67
2022/10/16 01:41:36;;;;;;;;;;;20.20;71.20;;;;;;5061194;28;1965;-68
2022/10/16 01:44:02;;;;;;;;;;;20.20;71.20;;;;;;5058949;28;1382;-67
2022/10/16 01:46:27;;;;;;;;;;;20.20;71.20;;;;;;5061230;28;1416;-68
2022/10/16 01:48:53;;;;;;;;;;;20.20;71.20;;;;;;5060189;28;1124;-68
2022/10/16 01:51:18;;;;;;;;;;;20.20;71.20;;;;;;5062404;28;1240;-67
2022/10/16 01:53:46;;;;;;;;;;;20.20;71.30;;;;;;5061376;28;1406;-68
2022/10/16 01:56:11;;;;;;;;;;;20.20;71.30;;;;;;5061793;28;1298;-69
2022/10/16 01:58:42;;;;;;;;;;;20.20;71.20;;;;;;5062015;28;1279;-67
2022/10/16 02:01:07;;;;;;;;;;;20.20;71.20;;;;;;5063012;28;1957;-66
2022/10/16 02:03:32;;;;;;;;;;;20.20;71.30;;;;;;5062875;28;1435;-67
2022/10/16 02:05:58;;;;;;;;;;;20.20;71.30;;;;;;5061039;28;1352;-67
2022/10/16 02:08:24;;;;;;;;;;;20.20;71.40;;;;;;5061604;28;994;-67
2022/10/16 02:10:50;;;;;;;;;;;20.20;71.30;;;;;;5062574;28;829;-68
2022/10/16 02:13:16;;;;;;;;;;;20.20;71.30;;;;;;5053526;28;947;-68
2022/10/16 02:15:42;;;;;;;;;;;20.20;71.30;;;;;;5048518;28;1255;-68
2022/10/16 02:18:08;;;;;;;;;;;20.20;71.30;;;;;;5058763;28;1247;-67
2022/10/16 02:20:34;;;;;;;;;;;20.20;71.40;;;;;;5057431;28;1898;-67
2022/10/16 02:23:00;;;;;;;;;;;20.20;71.30;;;;;;5063536;28;1032;-67
2022/10/16 02:25:28;;;;;;;;;;;20.20;71.30;;;;;;5057754;28;1288;-69
2022/10/16 02:28:20;;;;;;;;;;;20.20;71.30;;;;;;5056367;28;1022;-66
2022/10/16 02:30:50;;;;;;;;;;;20.20;71.40;;;;;;5056498;28;1090;-67
2022/10/16 02:33:15;;;;;;;;;;;20.20;71.30;;;;;;5060348;28;823;-67
2022/10/16 02:35:41;;;;;;;;;;;20.20;71.40;;;;;;5057245;28;1349;-69
2022/10/16 02:38:06;;;;;;;;;;;20.20;71.40;;;;;;5055495;28;1253;-67
2022/10/16 02:40:32;;;;;;;;;;;20.20;71.40;;;;;;5063427;28;1906;-67
2022/10/16 02:42:57;;;;;;;;;;;20.20;71.40;;;;;;5061948;28;1340;-68
2022/10/16 02:45:23;;;;;;;;;;;20.20;71.40;;;;;;5056269;28;1471;-68
2022/10/16 02:47:48;;;;;;;;;;;20.20;71.40;;;;;;5059755;28;1341;-66
2022/10/16 02:50:14;;;;;;;;;;;20.20;71.40;;;;;;5058580;28;1374;-67
2022/10/16 02:52:39;;;;;;;;;;;20.20;71.40;;;;;;5063189;28;1322;-67
2022/10/16 02:55:05;;;;;;;;;;;20.20;71.40;;;;;;5058027;28;1355;-68
2022/10/16 02:57:31;;;;;;;;;;;20.20;71.40;;;;;;5063116;28;1282;-68
2022/10/16 02:59:57;;;;;;;;;;;20.20;71.40;;;;;;5062209;28;1486;-68
2022/10/16 03:02:22;;;;;;;;;;;20.20;71.40;;;;;;5061197;28;1967;-68
2022/10/16 03:04:48;;;;;;;;;;;20.20;71.40;;;;;;5062352;28;1409;-67
2022/10/16 03:07:13;;;;;;;;;;;20.20;71.40;;;;;;5062424;28;1349;-68
2022/10/16 03:09:38;;;;;;;;;;;20.20;71.50;;;;;;5059621;28;1254;-66
2022/10/16 03:12:04;;;;;;;;;;;20.20;71.50;;;;;;5060123;28;1436;-67
2022/10/16 03:14:29;;;;;;;;;;;20.20;71.40;;;;;;5058204;28;1407;-70
2022/10/16 03:16:55;;;;;;;;;;;20.20;71.50;;;;;;5059959;28;1353;-67
2022/10/16 03:19:20;;;;;;;;;;;20.20;71.50;;;;;;5060392;28;1330;-67
2022/10/16 03:21:46;;;;;;;;;;;20.20;71.50;;;;;;5059810;28;1894;-67
2022/10/16 03:24:11;;;;;;;;;;;20.20;71.50;;;;;;5066031;28;1632;-68
2022/10/16 03:26:37;;;;;;;;;;;20.20;71.40;;;;;;5058659;28;1201;-69
2022/10/16 03:29:03;;;;;;;;;;;20.20;71.40;;;;;;5062700;28;1274;-67
2022/10/16 03:31:28;;;;;;;;;;;20.20;71.50;;;;;;5060106;28;982;-68
2022/10/16 03:33:54;;;;;;;;;;;20.20;71.50;;;;;;5065865;28;1482;-69
2022/10/16 03:36:19;;;;;;;;;;;20.20;71.50;;;;;;5063706;28;1489;-68
2022/10/16 03:38:45;;;;;;;;;;;20.20;71.50;;;;;;5062692;28;1312;-67
2022/10/16 03:41:10;;;;;;;;;;;20.20;71.50;;;;;;5066460;28;1971;-69
2022/10/16 03:43:36;;;;;;;;;;;20.20;71.50;;;;;;5066377;28;1392;-70
2022/10/16 03:46:01;;;;;;;;;;;20.20;71.50;;;;;;5064787;28;1279;-68
2022/10/16 03:48:26;;;;;;;;;;;20.20;71.50;;;;;;5064063;28;1311;-67
2022/10/16 03:50:52;;;;;;;;;;;20.20;71.50;;;;;;5064230;28;1501;-66
2022/10/16 03:53:17;;;;;;;;;;;20.20;71.50;;;;;;5063078;28;1392;-67
2022/10/16 03:55:43;;;;;;;;;;;20.20;71.50;;;;;;5063006;28;1342;-67
2022/10/16 03:58:08;;;;;;;;;;;20.20;71.50;;;;;;5064699;28;1468;-68
2022/10/16 04:00:34;;;;;;;;;;;20.20;71.50;;;;;;5062201;28;1906;-67
2022/10/16 04:03:00;;;;;;;;;;;20.20;71.50;;;;;;5062514;28;825;-67
2022/10/16 04:05:25;;;;;;;;;;;20.20;71.50;;;;;;5060485;28;1228;-68
2022/10/16 04:07:50;;;;;;;;;;;20.20;71.50;;;;;;5062013;28;851;-69
2022/10/16 04:10:16;;;;;;;;;;;20.20;71.50;;;;;;5062313;28;875;-68
2022/10/16 04:12:41;;;;;;;;;;;20.20;71.50;;;;;;5061587;28;832;-68
2022/10/16 04:15:07;;;;;;;;;;;20.20;71.50;;;;;;5058994;28;1353;-69
2022/10/16 04:17:32;;;;;;;;;;;20.20;71.50;;;;;;5064165;28;1344;-68
2022/10/16 04:19:58;;;;;;;;;;;20.20;71.50;;;;;;5058262;28;1085;-68
2022/10/16 04:22:23;;;;;;;;;;;20.20;71.50;;;;;;5061348;28;1870;-68
2022/10/16 04:24:49;;;;;;;;;;;20.20;71.60;;;;;;5059184;28;1356;-68
2022/10/16 04:27:14;;;;;;;;;;;20.20;71.60;;;;;;5062499;28;993;-68
2022/10/16 04:29:40;;;;;;;;;;;20.20;71.60;;;;;;5062095;28;851;-69
2022/10/16 04:32:05;;;;;;;;;;;20.20;71.60;;;;;;5062227;28;1365;-68
2022/10/16 04:34:30;;;;;;;;;;;20.20;71.50;;;;;;5056041;28;1374;-68
2022/10/16 04:36:56;;;;;;;;;;;20.20;71.60;;;;;;5059743;28;870;-68
2022/10/16 04:39:21;;;;;;;;;;;20.20;71.60;;;;;;5063207;28;880;-68
2022/10/16 04:41:47;;;;;;;;;;;20.20;71.60;;;;;;5060934;28;1906;-68
2022/10/16 04:44:12;;;;;;;;;;;20.20;71.60;;;;;;5061919;28;939;-68
2022/10/16 04:46:38;;;;;;;;;;;20.20;72.30;;;;;;5059162;28;2033;-67
2022/10/16 04:49:03;;;;;;;;;;;20.20;71.60;;;;;;5060231;28;957;-67
2022/10/16 04:51:28;;;;;;;;;;;20.20;71.60;;;;;;5060093;28;921;-67
2022/10/16 04:53:54;;;;;;;;;;;20.20;71.60;;;;;;5059876;28;859;-67
2022/10/16 04:56:21;;;;;;;;;;;20.20;71.60;;;;;;5060120;28;1348;-67
2022/10/16 04:58:46;;;;;;;;;;;20.20;71.60;;;;;;5059499;28;894;-67
2022/10/16 05:01:11;;;;;;;;;;;20.20;71.60;;;;;;5057669;28;1898;-67
2022/10/16 05:03:37;;;;;;;;;;;20.20;71.60;;;;;;5061182;28;1025;-67
2022/10/16 05:06:04;;;;;;;;;;;20.20;71.60;;;;;;5061424;28;1313;-67
2022/10/16 05:08:30;;;;;;;;;;;20.20;71.60;;;;;;5057829;28;1013;-67
2022/10/16 05:10:55;;;;;;;;;;;20.20;71.60;;;;;;5063307;28;1044;-68
2022/10/16 05:13:21;;;;;;;;;;;20.20;71.70;;;;;;5056746;28;1377;-67
2022/10/16 05:15:47;;;;;;;;;;;20.20;71.60;;;;;;5061976;28;1251;-67
2022/10/16 05:18:12;;;;;;;;;;;20.20;71.70;;;;;;5057740;28;960;-67
2022/10/16 05:20:38;;;;;;;;;;;20.20;71.70;;;;;;5062840;28;1973;-68
2022/10/16 05:23:03;;;;;;;;;;;20.20;71.70;;;;;;5067568;28;796;-67
2022/10/16 05:25:29;;;;;;;;;;;20.20;71.70;;;;;;5065292;28;1701;-67
2022/10/16 05:27:54;;;;;;;;;;;20.20;71.70;;;;;;5061488;28;879;-67
2022/10/16 05:30:20;;;;;;;;;;;20.20;71.70;;;;;;5060088;28;789;-67
2022/10/16 05:32:46;;;;;;;;;;;20.20;71.60;;;;;;5057435;28;854;-67
2022/10/16 05:35:11;;;;;;;;;;;20.20;71.70;;;;;;5059659;28;1321;-67
2022/10/16 05:37:37;;;;;;;;;;;20.20;71.70;;;;;;5059578;28;911;-67
2022/10/16 05:40:03;;;;;;;;;;;20.20;71.70;;;;;;5058966;28;887;-68
2022/10/16 05:42:29;;;;;;;;;;;20.20;71.70;;;;;;5057897;28;1918;-68
2022/10/16 05:44:54;;;;;;;;;;;20.20;71.70;;;;;;5057893;28;1710;-68
2022/10/16 05:47:20;;;;;;;;;;;20.20;71.70;;;;;;5059857;28;824;-67
2022/10/16 05:49:46;;;;;;;;;;;20.20;71.70;;;;;;5060105;28;795;-67
2022/10/16 05:52:11;;;;;;;;;;;20.20;71.70;;;;;;5058954;28;959;-69
2022/10/16 05:54:37;;;;;;;;;;;20.20;71.80;;;;;;5059796;28;1243;-67
2022/10/16 05:57:02;;;;;;;;;;;20.20;71.80;;;;;;5062330;28;895;-68
2022/10/16 05:59:27;;;;;;;;;;;20.20;71.70;;;;;;5056418;28;867;-67
2022/10/16 06:01:53;;;;;;;;;;;20.20;71.70;;;;;;5056941;28;1918;-68
2022/10/16 06:04:18;;;;;;;;;;;20.20;71.70;;;;;;5054768;28;1295;-68
2022/10/16 06:06:44;;;;;;;;;;;20.20;71.70;;;;;;5059175;28;867;-68
2022/10/16 06:09:09;;;;;;;;;;;20.20;71.60;;;;;;5056480;28;769;-67
2022/10/16 06:11:35;;;;;;;;;;;20.20;71.50;;;;;;5058843;28;811;-67
2022/10/16 06:14:06;;;;;;;;;;;20.30;71.50;;;;;;5056570;28;1487;-68
2022/10/16 06:16:32;;;;;;;;;;;20.30;71.50;;;;;;5057509;28;1369;-68
2022/10/16 06:18:59;;;;;;;;;;;20.30;71.40;;;;;;5060317;28;1253;-67
2022/10/16 06:21:24;;;;;;;;;;;20.30;71.30;;;;;;5058582;28;1898;-68
2022/10/16 06:23:50;;;;;;;;;;;20.30;71.20;;;;;;5067238;28;1128;-68
2022/10/16 06:26:17;;;;;;;;;;;20.30;71.20;;;;;;5054892;28;1217;-67
2022/10/16 06:28:42;;;;;;;;;;;20.40;71.20;;;;;;5056529;28;966;-67
2022/10/16 06:31:08;;;;;;;;;;;20.40;71.20;;;;;;5058015;28;935;-68
2022/10/16 06:33:33;;;;;;;;;;;20.40;71.20;;;;;;5055560;28;1862;-67
2022/10/16 06:36:09;;;;;;;;;;;20.40;71.10;;;;;;5056625;28;1447;-67
2022/10/16 06:38:34;;;;;;;;;;;20.40;71.10;;;;;;5058609;28;811;-67
2022/10/16 06:41:00;;;;;;;;;;;20.40;71.10;;;;;;5060461;28;1938;-67
2022/10/16 06:43:25;;;;;;;;;;;20.40;71.10;;;;;;5058800;28;801;-67
2022/10/16 06:45:52;;;;;;;;;;;20.40;70.90;;;;;;5057003;28;1717;-68
2022/10/16 06:48:17;;;;;;;;;;;20.40;70.90;;;;;;5048833;28;1912;-66
2022/10/16 06:50:43;;;;;;;;;;;20.50;70.90;;;;;;5055681;28;1288;-66
2022/10/16 06:53:08;;;;;;;;;;;20.50;70.80;;;;;;5054930;28;1180;-67
2022/10/16 06:55:34;;;;;;;;;;;20.40;70.70;;;;;;5055063;28;1675;-67
2022/10/16 06:57:59;;;;;;;;;;;20.50;70.80;;;;;;5058651;28;1302;-68
2022/10/16 07:00:24;;;;;;;;;;;20.50;70.80;;;;;;5055038;28;915;-68
2022/10/16 07:02:50;;;;;;;;;;;20.50;70.70;;;;;;5056076;28;2005;-67
2022/10/16 07:05:16;;;;;;;;;;;20.50;70.70;;;;;;5054788;28;1365;-68
2022/10/16 07:07:41;;;;;;;;;;;20.50;70.60;;;;;;5058210;28;903;-68
2022/10/16 07:10:07;;;;;;;;;;;20.50;70.60;;;;;;5059231;28;966;-68
2022/10/16 07:12:32;;;;;;;;;;;20.50;70.60;;;;;;5054260;28;1451;-68
2022/10/16 07:14:58;;;;;;;;;;;20.50;70.60;;;;;;5052947;28;1341;-69
2022/10/16 07:17:23;;;;;;;;;;;20.50;70.60;;;;;;5056060;28;1308;-68
2022/10/16 07:19:49;;;;;;;;;;;20.50;70.50;;;;;;5060171;28;1038;-69
2022/10/16 07:22:14;;;;;;;;;;;20.50;70.50;;;;;;5054511;28;1971;-71
2022/10/16 07:24:40;;;;;;;;;;;20.50;70.50;;;;;;5060095;28;1323;-70
2022/10/16 07:27:05;;;;;;;;;;;20.50;70.50;;;;;;5061203;28;1243;-70
2022/10/16 07:29:31;;;;;;;;;;;20.50;70.50;;;;;;5058247;28;2121;-70
2022/10/16 07:31:56;;;;;;;;;;;20.50;70.50;;;;;;5057603;28;1850;-70
2022/10/16 07:34:22;;;;;;;;;;;20.50;70.50;;;;;;5058904;28;1236;-71
2022/10/16 07:36:48;;;;;;;;;;;20.50;70.50;;;;;;5060928;28;876;-68
2022/10/16 07:39:13;;;;;;;;;;;20.50;70.50;;;;;;5056283;28;1226;-69
2022/10/16 07:41:39;;;;;;;;;;;20.50;70.50;;;;;;5052648;28;1963;-70
2022/10/16 07:44:04;;;;;;;;;;;20.50;70.40;;;;;;5051835;28;910;-70
2022/10/16 07:46:30;;;;;;;;;;;20.60;70.50;;;;;;5055988;28;1264;-69
2022/10/16 07:48:56;;;;;;;;;;;20.60;70.50;;;;;;5058504;28;1148;-69
2022/10/16 07:51:22;;;;;;;;;;;20.60;70.50;;;;;;5053582;28;1196;-69
2022/10/16 07:53:47;;;;;;;;;;;20.60;70.40;;;;;;5058126;28;803;-69
2022/10/16 07:56:13;;;;;;;;;;;20.60;70.40;;;;;;5056829;28;1293;-68
2022/10/16 07:58:38;;;;;;;;;;;20.60;70.40;;;;;;5054978;28;919;-67
2022/10/16 08:01:08;;;;;;;;;;;20.60;70.40;;;;;;5055730;28;1961;-68
2022/10/16 08:03:33;;;;;;;;;;;20.50;70.30;;;;;;5060471;28;891;-68
2022/10/16 08:05:59;;;;;;;;;;;20.60;70.40;;;;;;5057621;28;1331;-67
2022/10/16 08:08:24;;;;;;;;;;;20.60;70.40;;;;;;5056577;28;1037;-68
2022/10/16 08:10:50;;;;;;;;;;;20.50;70.30;;;;;;5057549;28;1018;-68
2022/10/16 08:13:15;;;;;;;;;;;20.60;70.40;;;;;;5058038;28;1022;-68
2022/10/16 08:15:41;;;;;;;;;;;20.60;70.40;;;;;;5059952;28;1285;-68
2022/10/16 08:18:07;;;;;;;;;;;20.60;70.40;;;;;;5062612;28;1284;-68
2022/10/16 08:20:32;;;;;;;;;;;20.60;70.40;;;;;;5062440;28;1204;-69
2022/10/16 08:22:58;;;;;;;;;;;20.60;70.40;;;;;;5059285;28;1894;-68
2022/10/16 08:25:24;;;;;;;;;;;20.60;70.40;;;;;;5066318;28;1287;-68
2022/10/16 08:27:49;;;;;;;;;;;20.60;70.40;;;;;;5052048;28;1247;-67
2022/10/16 08:30:15;;;;;;;;;;;20.60;70.40;;;;;;5058848;28;782;-68
2022/10/16 08:32:43;;;;;;;;;;;20.60;70.40;;;;;;5061019;28;1395;-68
2022/10/16 08:35:09;;;;;;;;;;;20.60;70.30;;;;;;5056131;28;1272;-69
2022/10/16 08:37:34;;;;;;;;;;;20.60;70.40;;;;;;5059190;28;920;-68
2022/10/16 08:40:00;;;;;;;;;;;20.60;70.40;;;;;;5058239;28;891;-68
2022/10/16 08:42:29;;;;;;;;;;;20.60;70.40;;;;;;5057805;28;1910;-68
2022/10/16 08:45:03;;;;;;;;;;;20.60;70.40;;;;;;5059595;28;1239;-68
2022/10/16 08:47:45;;;;;;;;;;;20.60;70.40;;;;;;5057758;28;906;-68
2022/10/16 08:50:12;;;;;;;;;;;20.50;70.40;;;;;;5059139;28;862;-68
2022/10/16 08:52:39;;;;;;;;;;;20.60;70.40;;;;;;5059815;28;886;-68
2022/10/16 08:55:04;;;;;;;;;;;20.60;70.40;;;;;;5060301;28;1270;-68
2022/10/16 08:57:32;;;;;;;;;;;20.60;70.50;;;;;;5058462;28;1279;-68
2022/10/16 09:00:00;;;;;;;;;;;20.60;70.40;;;;;;5060938;28;886;-68
2022/10/16 09:02:38;;;;;;;;;;;20.60;70.40;;;;;;5057898;28;1905;-68
2022/10/16 09:05:18;;;;;;;;;;;20.60;70.40;;;;;;5059014;28;1539;-67
2022/10/16 09:08:02;;;;;;;;;;;20.60;70.40;;;;;;5061722;28;1440;-68
2022/10/16 09:10:30;;;;;;;;;;;20.60;70.50;;;;;;5062851;28;1258;-68
2022/10/16 09:13:02;;;;;;;;;;;20.60;70.40;;;;;;5063838;28;1425;-68
2022/10/16 09:15:39;;;;;;;;;;;20.60;70.50;;;;;;5060030;28;1379;-69
2022/10/16 09:18:17;;;;;;;;;;;20.60;70.40;;;;;;5058169;28;1342;-70
2022/10/16 09:20:45;;;;;;;;;;;20.60;70.40;;;;;;5061708;28;1929;-70
2022/10/16 09:23:30;;;;;;;;;;;20.60;70.50;;;;;;5058574;28;1297;-68
2022/10/16 09:25:55;;;;;;;;;;;20.60;70.50;;;;;;5061152;28;1292;-69
2022/10/16 09:28:21;;;;;;;;;;;20.60;70.50;;;;;;5062688;28;1509;-68
2022/10/16 09:30:48;;;;;;;;;;;20.60;70.60;;;;;;5060875;28;1327;-68
2022/10/16 09:33:13;;;;;;;;;;;20.50;70.50;;;;;;5060094;28;1535;-68
2022/10/16 09:35:39;;;;;;;;;;;20.60;70.60;;;;;;5061478;28;1426;-69
2022/10/16 09:38:05;;;;;;;;;;;20.60;70.60;;;;;;5062314;28;1378;-68
2022/10/16 09:40:35;;;;;;;;;;;20.50;70.50;;;;;;5060899;28;1437;-67
2022/10/16 09:43:12;;;;;;;;;;;20.50;70.60;;;;;;5061959;28;1906;-66
2022/10/16 09:45:38;;;;;;;;;;;20.50;70.60;;;;;;5059629;28;1456;-68
2022/10/16 09:48:11;;;;;;;;;;;20.50;70.70;;;;;;5058090;28;1022;-67
2022/10/16 09:50:36;;;;;;;;;;;20.50;70.70;;;;;;5062005;28;1260;-67
2022/10/16 09:53:11;;;;;;;;;;;20.50;70.70;;;;;;5060129;28;1534;-67
2022/10/16 09:55:36;;;;;;;;;;;20.50;70.70;;;;;;5056757;28;1388;-67
2022/10/16 09:58:02;;;;;;;;;;;20.50;70.80;;;;;;5058481;28;1320;-67
2022/10/16 10:00:27;;;;;;;;;;;20.50;70.70;;;;;;5061721;28;1365;-67
2022/10/16 10:02:53;;;;;;;;;;;20.50;70.80;;;;;;5061115;28;1886;-67
2022/10/16 10:05:22;;;;;;;;;;;20.50;70.80;;;;;;5057089;28;1289;-68
2022/10/16 10:07:52;;;;;;;;;;;20.50;70.80;;;;;;5061640;28;1396;-66
2022/10/16 10:10:27;;;;;;;;;;;20.50;70.80;;;;;;5062435;28;1339;-66
2022/10/16 10:12:53;;;;;;;;;;;20.50;70.80;;;;;;5054791;28;2133;-68
2022/10/16 10:15:21;;;;;;;;;;;20.50;70.90;;;;;;5058820;28;2265;-68
2022/10/16 10:17:56;;;;;;;;;;;20.50;70.90;;;;;;5056462;28;1450;-68
2022/10/16 10:20:22;;;;;;;;;;;20.50;70.90;;;;;;5061981;28;1291;-67
2022/10/16 10:22:47;;;;;;;;;;;20.50;70.90;;;;;;5057488;28;1951;-68
2022/10/16 10:25:13;;;;;;;;;;;20.50;70.90;;;;;;5059932;28;1298;-67
2022/10/16 10:27:41;;;;;;;;;;;20.50;70.90;;;;;;5056725;28;844;-68
2022/10/16 10:30:18;;;;;;;;;;;20.50;70.90;;;;;;5055495;28;1060;-68
2022/10/16 10:32:56;;;;;;;;;;;20.50;70.90;;;;;;5058013;28;1400;-67
2022/10/16 10:35:22;;;;;;;;;;;20.50;70.90;;;;;;5055128;28;1284;-68
2022/10/16 10:38:03;;;;;;;;;;;20.50;71.00;;;;;;5059511;28;907;-68
2022/10/16 10:40:44;;;;;;;;;;;20.50;70.90;;;;;;5058386;28;1018;-68
2022/10/16 10:43:22;;;;;;;;;;;20.50;71.00;;;;;;5058909;28;1233;-68
2022/10/16 10:45:48;;;;;;;;;;;20.50;71.00;;;;;;5053871;28;1236;-68
2022/10/16 10:48:19;;;;;;;;;;;20.50;71.00;;;;;;5053593;28;916;-68
2022/10/16 10:50:44;;;;;;;;;;;20.50;71.00;;;;;;5060738;28;1093;-68
2022/10/16 10:53:19;;;;;;;;;;;20.40;70.90;;;;;;5056804;28;955;-68
2022/10/16 10:56:03;;;;;;;;;;;20.50;71.00;;;;;;5055789;28;1255;-68
2022/10/16 10:58:35;;;;;;;;;;;20.50;71.00;;;;;;5054586;28;836;-68
2022/10/16 11:01:13;;;;;;;;;;;20.40;71.00;;;;;;5058106;28;1903;-68
2022/10/16 11:03:58;;;;;;;;;;;20.50;71.10;;;;;;5054465;28;914;-68
2022/10/16 11:06:28;;;;;;;;;;;20.50;71.00;;;;;;5062176;28;1331;-68
2022/10/16 11:08:55;;;;;;;;;;;20.50;71.10;;;;;;5056179;28;947;-68
2022/10/16 11:11:27;;;;;;;;;;;20.50;71.10;;;;;;5056135;28;1836;-68
2022/10/16 11:13:56;;;;;;;;;;;20.50;71.10;;;;;;5058046;28;1337;-68
2022/10/16 11:16:42;;;;;;;;;;;20.50;71.10;;;;;;5051873;28;1346;-68
2022/10/16 11:19:10;;;;;;;;;;;20.50;71.20;;;;;;5059162;28;1398;-68
2022/10/16 11:21:38;;;;;;;;;;;20.50;71.20;;;;;;5057572;28;1910;-68
2022/10/16 11:24:11;;;;;;;;;;;20.50;71.20;;;;;;5056639;28;1341;-68
2022/10/16 11:26:38;;;;;;;;;;;20.50;71.20;;;;;;5057783;28;1441;-66
2022/10/16 11:29:04;;;;;;;;;;;20.50;71.20;;;;;;5046458;28;2214;-68
2022/10/16 11:31:35;;;;;;;;;;;20.50;71.20;;;;;;5058288;28;1333;-67
2022/10/16 11:34:17;;;;;;;;;;;20.50;71.20;;;;;;5054415;28;910;-68
2022/10/16 11:36:44;;;;;;;;;;;20.50;71.20;;;;;;5057164;28;1336;-67
2022/10/16 11:39:10;;;;;;;;;;;20.50;71.30;;;;;;5058166;28;1314;-68
2022/10/16 11:41:37;;;;;;;;;;;20.50;71.30;;;;;;5058604;28;1909;-68
2022/10/16 11:44:15;;;;;;;;;;;20.40;71.20;;;;;;5056982;28;1456;-68
2022/10/16 11:46:40;;;;;;;;;;;20.40;71.10;;;;;;5058049;28;1536;-68
2022/10/16 11:49:11;;;;;;;;;;;20.50;71.30;;;;;;5055793;28;982;-68
2022/10/16 11:51:38;;;;;;;;;;;20.40;71.20;;;;;;5063417;28;1508;-66
2022/10/16 11:54:06;;;;;;;;;;;20.50;71.30;;;;;;5063361;28;1456;-67
2022/10/16 11:56:32;;;;;;;;;;;20.50;71.30;;;;;;5062230;28;1516;-66
2022/10/16 11:59:02;;;;;;;;;;;20.40;71.20;;;;;;5052324;28;1528;-66
2022/10/16 12:01:31;;;;;;;;;;;20.50;71.20;;;;;;5061543;28;1957;-66
2022/10/16 12:04:06;;;;;;;;;;;20.50;71.30;;;;;;5061547;28;1589;-70
2022/10/16 12:06:35;;;;;;;;;;;20.50;71.30;;;;;;5063433;28;1282;-69
2022/10/16 12:09:00;;;;;;;;;;;20.40;71.20;;;;;;5062947;28;1326;-69
2022/10/16 12:11:25;;;;;;;;;;;20.40;71.20;;;;;;5060886;28;1366;-67
2022/10/16 12:13:51;;;;;;;;;;;20.40;71.20;;;;;;5063208;28;1381;-69
2022/10/16 12:16:20;;;;;;;;;;;20.50;71.30;;;;;;5062320;28;1363;-69
2022/10/16 12:18:45;;;;;;;;;;;20.40;71.20;;;;;;5063383;28;1455;-68
2022/10/16 12:21:15;;;;;;;;;;;20.40;71.20;;;;;;5064249;28;1973;-67
2022/10/16 12:23:50;;;;;;;;;;;20.40;71.30;;;;;;5059638;28;852;-68
2022/10/16 12:26:32;;;;;;;;;;;20.40;71.30;;;;;;5060030;28;1325;-68
2022/10/16 12:29:09;;;;;;;;;;;20.40;71.30;;;;;;5056747;28;5271;-68
2022/10/16 12:31:40;;;;;;;;;;;20.40;71.30;;;;;;5062335;28;1388;-67
2022/10/16 12:34:05;;;;;;;;;;;20.40;71.30;;;;;;5061785;28;1017;-68
2022/10/16 12:36:31;;;;;;;;;;;20.40;71.40;;;;;;5060671;28;1365;-68
2022/10/16 12:38:57;;;;;;;;;;;20.40;71.30;;;;;;5060807;28;866;-68
2022/10/16 12:41:27;;;;;;;;;;;20.40;71.40;;;;;;5060388;28;1914;-68
2022/10/16 12:43:52;;;;;;;;;;;20.40;71.30;;;;;;5061033;28;862;-68
2022/10/16 12:46:17;;;;;;;;;;;20.40;71.30;;;;;;5059574;28;1288;-68
2022/10/16 12:48:44;;;;;;;;;;;20.40;71.40;;;;;;5060262;28;1054;-68
2022/10/16 12:51:21;;;;;;;;;;;20.40;71.40;;;;;;5056771;28;1356;-67
2022/10/16 12:53:46;;;;;;;;;;;20.40;71.30;;;;;;5055545;28;931;-68
2022/10/16 12:56:20;;;;;;;;;;;20.40;71.40;;;;;;5057492;28;1569;-68
2022/10/16 12:59:07;;;;;;;;;;;20.40;71.50;;;;;;5057409;28;1104;-68
2022/10/16 13:01:33;;;;;;;;;;;20.40;71.40;;;;;;5060411;28;1960;-67
2022/10/16 13:04:08;;;;;;;;;;;20.40;71.40;;;;;;5058284;28;990;-67
2022/10/16 13:06:49;;;;;;;;;;;20.40;71.50;;;;;;5059639;28;1310;-68
2022/10/16 13:09:17;;;;;;;;;;;20.40;71.50;;;;;;5059959;28;842;-67
2022/10/16 13:11:43;;;;;;;;;;;20.40;71.20;;;;;;5063521;28;1381;-67
2022/10/16 13:14:14;;;;;;;;;;;20.40;71.20;;;;;;5058188;28;871;-68
2022/10/16 13:16:48;;;;;;;;;;;20.40;71.10;;;;;;5059919;28;1388;-67
2022/10/16 13:19:16;;;;;;;;;;;20.40;70.50;;;;;;5059893;28;1340;-68
2022/10/16 13:21:45;;;;;;;;;;;20.40;69.60;;;;;;5060644;28;1902;-67
2022/10/16 13:24:14;;;;;;;;;;;20.40;69.70;;;;;;5056654;28;1085;-67
2022/10/16 13:26:41;;;;;;;;;;;20.40;69.70;;;;;;5059068;28;1334;-67
2022/10/16 13:29:07;;;;;;;;;;;20.40;69.90;;;;;;5057323;28;808;-67
2022/10/16 13:31:33;;;;;;;;;;;20.40;69.60;;;;;;5060451;28;1478;-67
2022/10/16 13:33:58;;;;;;;;;;;20.40;69.50;;;;;;5059658;28;2269;-67
2022/10/16 13:36:27;;;;;;;;;;;20.40;69.40;;;;;;5058631;28;1322;-68
2022/10/16 13:39:00;;;;;;;;;;;20.40;69.50;;;;;;5059673;28;1423;-66
2022/10/16 13:41:25;;;;;;;;;;;20.40;69.40;;;;;;5060756;28;1959;-66
2022/10/16 13:43:51;;;;;;;;;;;20.40;69.40;;;;;;5061824;28;1265;-67
2022/10/16 13:46:16;;;;;;;;;;;20.40;69.20;;;;;;5047353;28;1303;-66
2022/10/16 13:48:42;;;;;;;;;;;20.40;69.30;;;;;;5058486;28;1851;-66
2022/10/16 13:51:12;;;;;;;;;;;20.40;69.20;;;;;;5061209;28;1301;-66
2022/10/16 13:53:37;;;;;;;;;;;20.40;69.00;;;;;;5064296;28;1496;-66
2022/10/16 13:56:03;;;;;;;;;;;20.40;68.90;;;;;;5059635;28;1260;-66
2022/10/16 13:58:29;;;;;;;;;;;20.40;68.90;;;;;;5062644;28;1219;-67
2022/10/16 14:01:01;;;;;;;;;;;20.40;68.60;;;;;;5061577;28;1971;-69
2022/10/16 14:03:27;;;;;;;;;;;20.40;68.30;;;;;;5047683;28;1431;-68
2022/10/16 14:05:56;;;;;;;;;;;20.40;67.90;;;;;;5061007;28;1516;-68
2022/10/16 14:08:22;;;;;;;;;;;20.40;67.40;;;;;;5063952;28;1531;-67
2022/10/16 14:10:48;;;;;;;;;;;20.40;67.40;;;;;;5061903;28;1288;-66
2022/10/16 14:13:15;;;;;;;;;;;20.40;67.30;;;;;;5059136;28;1898;-67
2022/10/16 14:15:40;;;;;;;;;;;20.40;67.50;;;;;;5060914;28;1437;-67
2022/10/16 14:18:06;;;;;;;;;;;20.40;68.00;;;;;;5057734;28;1380;-67
2022/10/16 14:20:32;;;;;;;;;;;20.40;68.00;;;;;;5063538;28;1313;-67
2022/10/16 14:23:17;;;;;;;;;;;20.40;67.90;;;;;;5061447;28;1898;-67
2022/10/16 14:25:43;;;;;;;;;;;20.40;67.70;;;;;;5059979;28;1510;-67
2022/10/16 14:28:15;;;;;;;;;;;20.40;68.10;;;;;;5060633;28;1301;-67
2022/10/16 14:30:57;;;;;;;;;;;20.40;68.00;;;;;;5061833;28;1784;-67
2022/10/16 14:33:33;;;;;;;;;;;20.40;68.00;;;;;;5058100;28;1437;-66
2022/10/16 14:35:58;;;;;;;;;;;20.30;67.80;;;;;;5054050;28;1291;-66